Terminal Aerodrome Forecast
Issued by NWS

Home | Current Version | Previous Version | Text Only | Print | Product List | Glossary On
Versions: 1 2 3 4 5 6 7 8 9 10 11 12 13 14 15 16 17 18 19 20 21 22 23 24
953
FTUS44 KCRP 161734
TAFALI
TAF
KALI 161734Z 1618/1718 17010KT P6SM BKN015 BKN035
     FM161900 17010KT P6SM SCT022 BKN040
      TEMPO 1619/1620 BKN022
     FM170500 14006KT P6SM BKN022
     FM171000 16004KT 4SM BR BKN006 OVC012
     FM171300 13005KT 2SM BR OVC004
     FM171500 14008KT 5SM BR VCSH BKN007
     FM171600 15012KT P6SM VCSH BKN015=

USA.gov is the U.S. government's official web portal to all federal, state and local government web resources and services.